sensor_id;sensor_type;location;lat;lon;timestamp;pressure;altitude;pressure_sealevel;temperature;humidity
18988;BME280;5494;51.796;10.952;2022-12-18T00:00:09;100330.56;;;-4.46;86.48
18988;BME280;5494;51.796;10.952;2022-12-18T00:02:42;100320.09;;;-4.55;86.75
18988;BME280;5494;51.796;10.952;2022-12-18T00:05:10;100337.78;;;-4.58;86.85
18988;BME280;5494;51.796;10.952;2022-12-18T00:07:38;100340.47;;;-4.54;87.07
18988;BME280;5494;51.796;10.952;2022-12-18T00:10:08;100348.69;;;-4.61;87.09
18988;BME280;5494;51.796;10.952;2022-12-18T00:12:36;100347.75;;;-4.63;87.00
18988;BME280;5494;51.796;10.952;2022-12-18T00:15:05;100351.91;;;-4.66;86.85
18988;BME280;5494;51.796;10.952;2022-12-18T00:17:33;100339.03;;;-4.72;87.17
18988;BME280;5494;51.796;10.952;2022-12-18T00:20:04;100342.91;;;-4.82;87.13
18988;BME280;5494;51.796;10.952;2022-12-18T00:22:32;100341.66;;;-4.95;87.78
18988;BME280;5494;51.796;10.952;2022-12-18T00:25:00;100340.31;;;-4.85;87.94
18988;BME280;5494;51.796;10.952;2022-12-18T00:27:29;100337.91;;;-4.81;88.11
18988;BME280;5494;51.796;10.952;2022-12-18T00:29:58;100332.03;;;-4.80;87.85
18988;BME280;5494;51.796;10.952;2022-12-18T00:32:26;100346.25;;;-4.85;87.95
18988;BME280;5494;51.796;10.952;2022-12-18T00:34:54;100337.78;;;-4.84;88.49
18988;BME280;5494;51.796;10.952;2022-12-18T00:37:25;100332.22;;;-4.73;88.48
18988;BME280;5494;51.796;10.952;2022-12-18T00:39:53;100333.78;;;-4.77;88.21
18988;BME280;5494;51.796;10.952;2022-12-18T00:42:21;100350.72;;;-4.76;88.17
18988;BME280;5494;51.796;10.952;2022-12-18T00:45:07;100338.66;;;-4.83;88.38
18988;BME280;5494;51.796;10.952;2022-12-18T00:47:39;100342.66;;;-4.90;88.70
18988;BME280;5494;51.796;10.952;2022-12-18T00:50:09;100336.78;;;-4.89;88.54
18988;BME280;5494;51.796;10.952;2022-12-18T00:52:39;100340.84;;;-4.94;88.20
18988;BME280;5494;51.796;10.952;2022-12-18T00:55:09;100340.56;;;-4.78;88.21
18988;BME280;5494;51.796;10.952;2022-12-18T00:57:37;100337.72;;;-4.87;88.14
18988;BME280;5494;51.796;10.952;2022-12-18T01:00:11;100349.41;;;-4.90;87.74
18988;BME280;5494;51.796;10.952;2022-12-18T01:02:42;100340.03;;;-4.93;88.19
18988;BME280;5494;51.796;10.952;2022-12-18T01:05:15;100342.38;;;-4.99;88.47
18988;BME280;5494;51.796;10.952;2022-12-18T01:07:45;100350.00;;;-4.99;88.48
18988;BME280;5494;51.796;10.952;2022-12-18T01:10:13;100345.72;;;-5.00;88.79
18988;BME280;5494;51.796;10.952;2022-12-18T01:12:41;100352.47;;;-5.00;88.78
18988;BME280;5494;51.796;10.952;2022-12-18T01:15:13;100343.94;;;-5.02;89.08
18988;BME280;5494;51.796;10.952;2022-12-18T01:17:42;100350.72;;;-5.01;88.77
18988;BME280;5494;51.796;10.952;2022-12-18T01:20:13;100364.94;;;-5.06;88.98
18988;BME280;5494;51.796;10.952;2022-12-18T01:22:41;100366.06;;;-4.98;88.87
18988;BME280;5494;51.796;10.952;2022-12-18T01:25:11;100371.22;;;-4.95;88.53
18988;BME280;5494;51.796;10.952;2022-12-18T01:27:39;100371.16;;;-4.97;88.49
18988;BME280;5494;51.796;10.952;2022-12-18T01:30:08;100367.06;;;-4.93;88.37
18988;BME280;5494;51.796;10.952;2022-12-18T01:32:37;100373.00;;;-4.93;88.26
18988;BME280;5494;51.796;10.952;2022-12-18T01:35:07;100371.16;;;-4.97;88.44
18988;BME280;5494;51.796;10.952;2022-12-18T01:37:35;100374.28;;;-5.04;88.50
18988;BME280;5494;51.796;10.952;2022-12-18T01:40:05;100376.09;;;-5.01;88.57
18988;BME280;5494;51.796;10.952;2022-12-18T01:42:34;100379.16;;;-5.10;88.91
18988;BME280;5494;51.796;10.952;2022-12-18T01:45:22;100382.47;;;-5.12;89.06
18988;BME280;5494;51.796;10.952;2022-12-18T01:47:55;100385.34;;;-5.02;89.46
18988;BME280;5494;51.796;10.952;2022-12-18T01:50:29;100385.03;;;-5.11;89.19
18988;BME280;5494;51.796;10.952;2022-12-18T01:53:03;100389.94;;;-5.16;89.56
18988;BME280;5494;51.796;10.952;2022-12-18T01:55:39;100384.03;;;-5.16;89.89
18988;BME280;5494;51.796;10.952;2022-12-18T01:58:12;100383.97;;;-5.18;89.52
18988;BME280;5494;51.796;10.952;2022-12-18T02:00:41;100377.34;;;-5.14;89.75
18988;BME280;5494;51.796;10.952;2022-12-18T02:03:11;100384.94;;;-5.14;89.70
18988;BME280;5494;51.796;10.952;2022-12-18T02:05:46;100375.41;;;-5.21;89.87
18988;BME280;5494;51.796;10.952;2022-12-18T02:08:22;100374.69;;;-5.17;89.66
18988;BME280;5494;51.796;10.952;2022-12-18T02:11:02;100388.34;;;-5.13;89.54
18988;BME280;5494;51.796;10.952;2022-12-18T02:13:41;100394.69;;;-5.25;89.63
18988;BME280;5494;51.796;10.952;2022-12-18T02:16:29;100389.25;;;-5.35;89.61
18988;BME280;5494;51.796;10.952;2022-12-18T02:19:14;100380.53;;;-5.43;90.05
18988;BME280;5494;51.796;10.952;2022-12-18T02:21:57;100386.53;;;-5.41;90.30
18988;BME280;5494;51.796;10.952;2022-12-18T02:24:38;100385.13;;;-5.33;90.04
18988;BME280;5494;51.796;10.952;2022-12-18T02:27:13;100380.00;;;-5.35;90.27
18988;BME280;5494;51.796;10.952;2022-12-18T02:29:50;100373.41;;;-5.30;90.24
18988;BME280;5494;51.796;10.952;2022-12-18T02:32:28;100377.34;;;-5.38;90.06
18988;BME280;5494;51.796;10.952;2022-12-18T02:35:01;100358.75;;;-5.38;90.02
18988;BME280;5494;51.796;10.952;2022-12-18T02:37:34;100378.97;;;-5.40;90.25
18988;BME280;5494;51.796;10.952;2022-12-18T02:40:08;100376.06;;;-5.27;90.31
18988;BME280;5494;51.796;10.952;2022-12-18T02:42:38;100387.94;;;-5.26;89.83
18988;BME280;5494;51.796;10.952;2022-12-18T02:45:09;100371.09;;;-5.24;89.88
18988;BME280;5494;51.796;10.952;2022-12-18T02:47:41;100374.53;;;-5.22;89.38
18988;BME280;5494;51.796;10.952;2022-12-18T02:50:22;100379.81;;;-5.16;89.01
18988;BME280;5494;51.796;10.952;2022-12-18T02:53:12;100385.53;;;-5.21;89.09
18988;BME280;5494;51.796;10.952;2022-12-18T02:56:01;100386.28;;;-5.24;88.90
18988;BME280;5494;51.796;10.952;2022-12-18T02:58:45;100372.53;;;-5.06;88.81
18988;BME280;5494;51.796;10.952;2022-12-18T03:01:33;100384.63;;;-5.23;88.49
18988;BME280;5494;51.796;10.952;2022-12-18T03:04:10;100381.41;;;-5.19;88.78
18988;BME280;5494;51.796;10.952;2022-12-18T03:06:48;100383.97;;;-5.18;89.01
18988;BME280;5494;51.796;10.952;2022-12-18T03:09:24;100391.56;;;-5.18;88.92
18988;BME280;5494;51.796;10.952;2022-12-18T03:12:02;100390.06;;;-5.12;88.67
18988;BME280;5494;51.796;10.952;2022-12-18T03:14:55;100380.81;;;-5.12;88.73
18988;BME280;5494;51.796;10.952;2022-12-18T03:17:28;100382.28;;;-5.17;88.33
18988;BME280;5494;51.796;10.952;2022-12-18T03:20:03;100395.69;;;-5.21;88.53
18988;BME280;5494;51.796;10.952;2022-12-18T03:22:34;100400.97;;;-5.15;88.76
18988;BME280;5494;51.796;10.952;2022-12-18T03:25:09;100399.94;;;-5.20;88.52
18988;BME280;5494;51.796;10.952;2022-12-18T03:27:45;100393.22;;;-5.20;88.70
18988;BME280;5494;51.796;10.952;2022-12-18T03:30:18;100393.22;;;-5.20;88.83
18988;BME280;5494;51.796;10.952;2022-12-18T03:32:51;100391.75;;;-5.13;88.76
18988;BME280;5494;51.796;10.952;2022-12-18T03:35:34;100389.59;;;-5.26;88.92
18988;BME280;5494;51.796;10.952;2022-12-18T03:38:04;100400.69;;;-5.23;89.01
18988;BME280;5494;51.796;10.952;2022-12-18T03:40:49;100389.81;;;-5.20;88.60
18988;BME280;5494;51.796;10.952;2022-12-18T03:43:31;100387.56;;;-5.11;88.13
18988;BME280;5494;51.796;10.952;2022-12-18T03:46:24;100384.34;;;-5.07;87.70
18988;BME280;5494;51.796;10.952;2022-12-18T03:49:02;100386.06;;;-5.30;87.92
18988;BME280;5494;51.796;10.952;2022-12-18T03:51:40;100376.88;;;-5.28;88.25
18988;BME280;5494;51.796;10.952;2022-12-18T03:54:11;100383.75;;;-5.24;88.10
18988;BME280;5494;51.796;10.952;2022-12-18T03:56:57;100380.31;;;-5.26;88.14
18988;BME280;5494;51.796;10.952;2022-12-18T03:59:29;100375.72;;;-5.36;88.63
18988;BME280;5494;51.796;10.952;2022-12-18T04:02:03;100374.16;;;-5.32;88.47
18988;BME280;5494;51.796;10.952;2022-12-18T04:04:35;100373.91;;;-5.40;88.75
18988;BME280;5494;51.796;10.952;2022-12-18T04:07:07;100365.19;;;-5.48;88.68
18988;BME280;5494;51.796;10.952;2022-12-18T04:09:41;100365.84;;;-5.52;88.88
18988;BME280;5494;51.796;10.952;2022-12-18T04:12:09;100368.38;;;-5.52;88.93
18988;BME280;5494;51.796;10.952;2022-12-18T04:14:38;100364.69;;;-5.62;88.89
18988;BME280;5494;51.796;10.952;2022-12-18T04:17:09;100359.16;;;-5.74;89.24
18988;BME280;5494;51.796;10.952;2022-12-18T04:19:38;100373.31;;;-5.79;89.52
18988;BME280;5494;51.796;10.952;2022-12-18T04:22:09;100371.59;;;-5.80;89.62
18988;BME280;5494;51.796;10.952;2022-12-18T04:24:42;100375.13;;;-5.76;89.45
18988;BME280;5494;51.796;10.952;2022-12-18T04:27:19;100381.84;;;-5.77;89.55
18988;BME280;5494;51.796;10.952;2022-12-18T04:29:49;100375.69;;;-5.83;89.51
18988;BME280;5494;51.796;10.952;2022-12-18T04:32:19;100379.25;;;-5.78;89.58
18988;BME280;5494;51.796;10.952;2022-12-18T04:34:48;100374.13;;;-5.80;89.71
18988;BME280;5494;51.796;10.952;2022-12-18T04:37:16;100368.16;;;-5.82;89.89
18988;BME280;5494;51.796;10.952;2022-12-18T04:39:44;100364.56;;;-5.87;90.01
18988;BME280;5494;51.796;10.952;2022-12-18T04:42:20;100357.59;;;-5.94;90.26
18988;BME280;5494;51.796;10.952;2022-12-18T04:44:48;100360.91;;;-5.97;90.42
18988;BME280;5494;51.796;10.952;2022-12-18T04:47:16;100364.50;;;-5.90;90.49
18988;BME280;5494;51.796;10.952;2022-12-18T04:49:46;100366.25;;;-5.89;90.32
18988;BME280;5494;51.796;10.952;2022-12-18T04:52:14;100359.22;;;-5.96;90.24
18988;BME280;5494;51.796;10.952;2022-12-18T04:54:42;100363.53;;;-5.93;90.33
18988;BME280;5494;51.796;10.952;2022-12-18T04:57:10;100373.78;;;-5.90;90.26
18988;BME280;5494;51.796;10.952;2022-12-18T04:59:39;100373.03;;;-5.88;90.21
18988;BME280;5494;51.796;10.952;2022-12-18T05:02:07;100378.50;;;-5.76;90.13
18988;BME280;5494;51.796;10.952;2022-12-18T05:04:36;100379.19;;;-5.80;89.99
18988;BME280;5494;51.796;10.952;2022-12-18T05:07:05;100379.56;;;-5.93;90.00
18988;BME280;5494;51.796;10.952;2022-12-18T05:09:34;100393.88;;;-5.95;90.23
18988;BME280;5494;51.796;10.952;2022-12-18T05:12:02;100388.91;;;-5.92;90.52
18988;BME280;5494;51.796;10.952;2022-12-18T05:14:30;100395.75;;;-5.89;89.96
18988;BME280;5494;51.796;10.952;2022-12-18T05:16:58;100396.41;;;-5.95;90.19
18988;BME280;5494;51.796;10.952;2022-12-18T05:19:27;100394.88;;;-5.90;90.31
18988;BME280;5494;51.796;10.952;2022-12-18T05:21:55;100391.19;;;-5.98;90.12
18988;BME280;5494;51.796;10.952;2022-12-18T05:24:25;100396.91;;;-6.04;90.47
18988;BME280;5494;51.796;10.952;2022-12-18T05:26:54;100397.19;;;-5.96;90.53
18988;BME280;5494;51.796;10.952;2022-12-18T05:29:22;100396.41;;;-5.95;90.64
18988;BME280;5494;51.796;10.952;2022-12-18T05:31:50;100398.97;;;-5.93;90.42
18988;BME280;5494;51.796;10.952;2022-12-18T05:34:18;100384.69;;;-5.91;90.28
18988;BME280;5494;51.796;10.952;2022-12-18T05:36:46;100388.97;;;-5.90;90.20
18988;BME280;5494;51.796;10.952;2022-12-18T05:39:14;100383.66;;;-5.97;90.21
18988;BME280;5494;51.796;10.952;2022-12-18T05:41:44;100383.94;;;-6.11;90.47
18988;BME280;5494;51.796;10.952;2022-12-18T05:44:12;100378.75;;;-6.14;90.42
18988;BME280;5494;51.796;10.952;2022-12-18T05:46:40;100379.75;;;-5.87;90.69
18988;BME280;5494;51.796;10.952;2022-12-18T05:49:09;100389.69;;;-5.93;90.50
18988;BME280;5494;51.796;10.952;2022-12-18T05:51:37;100391.91;;;-6.02;90.45
18988;BME280;5494;51.796;10.952;2022-12-18T05:54:07;100401.56;;;-5.92;90.71
18988;BME280;5494;51.796;10.952;2022-12-18T05:56:36;100399.94;;;-5.90;90.66
18988;BME280;5494;51.796;10.952;2022-12-18T05:59:05;100397.75;;;-5.81;90.40
18988;BME280;5494;51.796;10.952;2022-12-18T06:01:33;100397.69;;;-5.82;90.04
18988;BME280;5494;51.796;10.952;2022-12-18T06:04:02;100398.63;;;-5.79;89.88
18988;BME280;5494;51.796;10.952;2022-12-18T06:06:31;100398.22;;;-5.91;89.96
18988;BME280;5494;51.796;10.952;2022-12-18T06:08:59;100396.69;;;-5.86;89.86
18988;BME280;5494;51.796;10.952;2022-12-18T06:11:28;100399.75;;;-5.94;89.83
18988;BME280;5494;51.796;10.952;2022-12-18T06:13:56;100393.91;;;-5.93;90.29
18988;BME280;5494;51.796;10.952;2022-12-18T06:16:28;100390.41;;;-5.97;90.53
18988;BME280;5494;51.796;10.952;2022-12-18T06:18:57;100391.03;;;-6.03;90.70
18988;BME280;5494;51.796;10.952;2022-12-18T06:21:27;100391.72;;;-6.07;90.98
18988;BME280;5494;51.796;10.952;2022-12-18T06:23:59;100391.31;;;-5.95;91.25
18988;BME280;5494;51.796;10.952;2022-12-18T06:26:27;100400.00;;;-5.87;91.05
18988;BME280;5494;51.796;10.952;2022-12-18T06:28:55;100394.16;;;-5.86;91.02
18988;BME280;5494;51.796;10.952;2022-12-18T06:31:25;100398.13;;;-5.70;91.00
18988;BME280;5494;51.796;10.952;2022-12-18T06:33:54;100409.41;;;-5.62;90.48
18988;BME280;5494;51.796;10.952;2022-12-18T06:36:22;100416.41;;;-5.55;90.23
18988;BME280;5494;51.796;10.952;2022-12-18T06:38:50;100423.78;;;-5.61;90.17
18988;BME280;5494;51.796;10.952;2022-12-18T06:41:20;100421.28;;;-5.60;89.75
18988;BME280;5494;51.796;10.952;2022-12-18T06:43:49;100427.34;;;-5.56;89.79
18988;BME280;5494;51.796;10.952;2022-12-18T06:46:21;100433.28;;;-5.56;89.97
18988;BME280;5494;51.796;10.952;2022-12-18T06:48:50;100432.13;;;-5.41;89.50
18988;BME280;5494;51.796;10.952;2022-12-18T06:51:25;100427.34;;;-5.32;89.20
18988;BME280;5494;51.796;10.952;2022-12-18T06:53:53;100429.09;;;-5.31;89.17
18988;BME280;5494;51.796;10.952;2022-12-18T06:56:21;100427.25;;;-5.35;88.97
18988;BME280;5494;51.796;10.952;2022-12-18T06:58:49;100420.59;;;-5.33;89.05
18988;BME280;5494;51.796;10.952;2022-12-18T07:01:18;100427.69;;;-5.23;88.89
18988;BME280;5494;51.796;10.952;2022-12-18T07:03:46;100428.28;;;-5.30;88.48
18988;BME280;5494;51.796;10.952;2022-12-18T07:06:17;100430.16;;;-5.25;88.72
18988;BME280;5494;51.796;10.952;2022-12-18T07:08:49;100429.53;;;-5.19;88.13
18988;BME280;5494;51.796;10.952;2022-12-18T07:11:19;100418.53;;;-5.20;87.89
18988;BME280;5494;51.796;10.952;2022-12-18T07:13:47;100422.75;;;-5.20;88.00
18988;BME280;5494;51.796;10.952;2022-12-18T07:16:17;100431.91;;;-5.24;87.89
18988;BME280;5494;51.796;10.952;2022-12-18T07:18:51;100446.78;;;-5.33;87.86
18988;BME280;5494;51.796;10.952;2022-12-18T07:21:21;100456.06;;;-5.33;88.31
18988;BME280;5494;51.796;10.952;2022-12-18T07:23:51;100455.72;;;-5.42;88.60
18988;BME280;5494;51.796;10.952;2022-12-18T07:26:21;100464.25;;;-5.40;88.30
18988;BME280;5494;51.796;10.952;2022-12-18T07:28:50;100464.13;;;-5.43;88.69
18988;BME280;5494;51.796;10.952;2022-12-18T07:31:21;100464.84;;;-5.46;88.81
18988;BME280;5494;51.796;10.952;2022-12-18T07:33:50;100474.09;;;-5.48;88.88
18988;BME280;5494;51.796;10.952;2022-12-18T07:36:19;100469.41;;;-5.37;88.83
18988;BME280;5494;51.796;10.952;2022-12-18T07:38:52;100483.56;;;-5.42;88.78
18988;BME280;5494;51.796;10.952;2022-12-18T07:41:20;100490.44;;;-5.40;88.37
18988;BME280;5494;51.796;10.952;2022-12-18T07:43:48;100492.91;;;-5.41;88.24
18988;BME280;5494;51.796;10.952;2022-12-18T07:46:17;100493.13;;;-5.35;88.04
18988;BME280;5494;51.796;10.952;2022-12-18T07:48:46;100493.13;;;-5.35;88.17
18988;BME280;5494;51.796;10.952;2022-12-18T07:51:16;100496.38;;;-5.39;88.02
18988;BME280;5494;51.796;10.952;2022-12-18T07:53:45;100494.22;;;-5.29;88.21
18988;BME280;5494;51.796;10.952;2022-12-18T07:56:20;100502.91;;;-5.22;87.65
18988;BME280;5494;51.796;10.952;2022-12-18T07:58:54;100492.03;;;-5.20;87.00
18988;BME280;5494;51.796;10.952;2022-12-18T08:01:22;100498.91;;;-5.16;86.20
18988;BME280;5494;51.796;10.952;2022-12-18T08:03:51;100505.28;;;-5.03;85.66
18988;BME280;5494;51.796;10.952;2022-12-18T08:06:19;100500.91;;;-4.85;85.12
18988;BME280;5494;51.796;10.952;2022-12-18T08:08:51;100505.78;;;-4.65;84.44
18988;BME280;5494;51.796;10.952;2022-12-18T08:11:23;100505.44;;;-4.25;83.61
18988;BME280;5494;51.796;10.952;2022-12-18T08:13:52;100505.53;;;-3.97;81.95
18988;BME280;5494;51.796;10.952;2022-12-18T08:16:21;100495.66;;;-3.61;80.81
18988;BME280;5494;51.796;10.952;2022-12-18T08:18:52;100502.44;;;-3.32;78.64
18988;BME280;5494;51.796;10.952;2022-12-18T08:21:23;100502.97;;;-2.85;76.90
18988;BME280;5494;51.796;10.952;2022-12-18T08:23:53;100489.34;;;-2.54;75.18
18988;BME280;5494;51.796;10.952;2022-12-18T08:26:26;100487.91;;;-2.12;73.34
18988;BME280;5494;51.796;10.952;2022-12-18T08:28:57;100489.00;;;-1.65;71.42
18988;BME280;5494;51.796;10.952;2022-12-18T08:31:28;100490.13;;;-1.13;70.55
18988;BME280;5494;51.796;10.952;2022-12-18T08:33:57;100483.34;;;-0.69;67.46
18988;BME280;5494;51.796;10.952;2022-12-18T08:36:25;100471.44;;;-0.20;65.29
18988;BME280;5494;51.796;10.952;2022-12-18T08:38:53;100466.25;;;0.29;64.09
18988;BME280;5494;51.796;10.952;2022-12-18T08:41:23;100468.00;;;0.32;60.85
18988;BME280;5494;51.796;10.952;2022-12-18T08:43:51;100455.44;;;0.49;58.46
18988;BME280;5494;51.796;10.952;2022-12-18T08:46:40;100470.59;;;0.35;57.44
18988;BME280;5494;51.796;10.952;2022-12-18T08:49:11;100464.31;;;0.73;60.09
18988;BME280;5494;51.796;10.952;2022-12-18T08:51:39;100469.72;;;0.98;59.90
18988;BME280;5494;51.796;10.952;2022-12-18T08:54:11;100465.81;;;1.32;60.10
18988;BME280;5494;51.796;10.952;2022-12-18T08:56:40;100466.94;;;1.56;57.06
18988;BME280;5494;51.796;10.952;2022-12-18T08:59:09;100466.41;;;1.91;53.57
18988;BME280;5494;51.796;10.952;2022-12-18T09:01:46;100456.06;;;1.83;52.33
18988;BME280;5494;51.796;10.952;2022-12-18T09:04:15;100449.41;;;2.05;51.85
18988;BME280;5494;51.796;10.952;2022-12-18T09:06:44;100441.66;;;1.96;50.91
18988;BME280;5494;51.796;10.952;2022-12-18T09:09:12;100443.75;;;1.46;51.97
18988;BME280;5494;51.796;10.952;2022-12-18T09:11:41;100439.63;;;1.60;51.44
18988;BME280;5494;51.796;10.952;2022-12-18T09:14:10;100440.59;;;1.71;52.95
18988;BME280;5494;51.796;10.952;2022-12-18T09:16:38;100436.38;;;1.81;52.33
18988;BME280;5494;51.796;10.952;2022-12-18T09:19:07;100441.72;;;2.08;51.97
18988;BME280;5494;51.796;10.952;2022-12-18T09:21:35;100447.00;;;2.26;50.78
18988;BME280;5494;51.796;10.952;2022-12-18T09:24:04;100436.75;;;2.29;50.30
18988;BME280;5494;51.796;10.952;2022-12-18T09:26:35;100433.41;;;2.41;49.81
18988;BME280;5494;51.796;10.952;2022-12-18T09:29:05;100434.97;;;2.18;50.17
18988;BME280;5494;51.796;10.952;2022-12-18T09:31:35;100429.88;;;2.25;49.91
18988;BME280;5494;51.796;10.952;2022-12-18T09:34:06;100425.69;;;2.40;50.09
18988;BME280;5494;51.796;10.952;2022-12-18T09:36:35;100427.22;;;2.15;50.00
18988;BME280;5494;51.796;10.952;2022-12-18T09:39:03;100421.28;;;2.19;50.84
18988;BME280;5494;51.796;10.952;2022-12-18T09:41:48;100424.50;;;1.90;51.63
18988;BME280;5494;51.796;10.952;2022-12-18T09:44:28;100431.31;;;1.85;50.99
18988;BME280;5494;51.796;10.952;2022-12-18T09:47:10;100431.94;;;1.60;52.02
18988;BME280;5494;51.796;10.952;2022-12-18T09:49:44;100431.34;;;1.90;52.33
18988;BME280;5494;51.796;10.952;2022-12-18T09:52:21;100419.25;;;1.72;52.41
18988;BME280;5494;51.796;10.952;2022-12-18T09:54:58;100423.63;;;1.87;52.88
18988;BME280;5494;51.796;10.952;2022-12-18T09:57:32;100416.81;;;1.89;52.08
18988;BME280;5494;51.796;10.952;2022-12-18T10:00:16;100412.63;;;2.03;52.59
18988;BME280;5494;51.796;10.952;2022-12-18T10:02:46;100409.34;;;2.19;51.47
18988;BME280;5494;51.796;10.952;2022-12-18T10:05:17;100395.69;;;2.25;51.29
18988;BME280;5494;51.796;10.952;2022-12-18T10:07:59;100392.13;;;2.00;51.63
18988;BME280;5494;51.796;10.952;2022-12-18T10:10:40;100393.00;;;2.10;51.59
18988;BME280;5494;51.796;10.952;2022-12-18T10:13:22;100388.00;;;2.28;51.62
18988;BME280;5494;51.796;10.952;2022-12-18T10:16:09;100392.09;;;1.97;51.98
18988;BME280;5494;51.796;10.952;2022-12-18T10:19:03;100385.41;;;2.20;51.50
18988;BME280;5494;51.796;10.952;2022-12-18T10:21:45;100380.41;;;2.51;51.25
18988;BME280;5494;51.796;10.952;2022-12-18T10:24:26;100391.38;;;2.22;51.23
18988;BME280;5494;51.796;10.952;2022-12-18T10:27:13;100405.09;;;2.29;51.67
18988;BME280;5494;51.796;10.952;2022-12-18T10:29:44;100400.66;;;1.99;52.42
18988;BME280;5494;51.796;10.952;2022-12-18T10:32:20;100403.03;;;1.72;52.86
18988;BME280;5494;51.796;10.952;2022-12-18T10:34:52;100401.41;;;1.84;52.85
18988;BME280;5494;51.796;10.952;2022-12-18T10:37:29;100412.66;;;2.08;52.96
18988;BME280;5494;51.796;10.952;2022-12-18T10:40:11;100406.03;;;2.45;52.18
18988;BME280;5494;51.796;10.952;2022-12-18T10:43:04;100417.88;;;2.18;51.46
18988;BME280;5494;51.796;10.952;2022-12-18T10:45:32;100415.13;;;1.92;52.85
18988;BME280;5494;51.796;10.952;2022-12-18T10:48:03;100419.47;;;2.03;52.06
18988;BME280;5494;51.796;10.952;2022-12-18T10:50:35;100415.13;;;1.92;52.58
18988;BME280;5494;51.796;10.952;2022-12-18T10:53:27;100420.19;;;1.83;53.49
18988;BME280;5494;51.796;10.952;2022-12-18T10:55:58;100420.28;;;1.95;52.76
18988;BME280;5494;51.796;10.952;2022-12-18T10:58:31;100419.50;;;2.06;53.36
18988;BME280;5494;51.796;10.952;2022-12-18T11:01:08;100417.88;;;2.18;52.15
18988;BME280;5494;51.796;10.952;2022-12-18T11:03:40;100409.44;;;2.37;52.89
18988;BME280;5494;51.796;10.952;2022-12-18T11:06:11;100410.94;;;2.08;52.42
18988;BME280;5494;51.796;10.952;2022-12-18T11:08:42;100406.59;;;1.96;53.16
18988;BME280;5494;51.796;10.952;2022-12-18T11:11:20;100403.88;;;1.74;53.40
18988;BME280;5494;51.796;10.952;2022-12-18T11:14:00;100403.78;;;1.58;53.93
18988;BME280;5494;51.796;10.952;2022-12-18T11:16:34;100403.88;;;1.74;53.43
18988;BME280;5494;51.796;10.952;2022-12-18T11:19:34;100389.25;;;1.62;54.76
18988;BME280;5494;51.796;10.952;2022-12-18T11:22:21;100380.66;;;1.55;54.25
18988;BME280;5494;51.796;10.952;2022-12-18T11:24:56;100381.59;;;1.64;54.08
18988;BME280;5494;51.796;10.952;2022-12-18T11:27:49;100381.56;;;1.57;54.49
18988;BME280;5494;51.796;10.952;2022-12-18T11:30:24;100374.78;;;1.66;54.82
18988;BME280;5494;51.796;10.952;2022-12-18T11:32:58;100368.88;;;1.80;54.09
18988;BME280;5494;51.796;10.952;2022-12-18T11:35:39;100371.41;;;1.73;53.87
18988;BME280;5494;51.796;10.952;2022-12-18T11:38:21;100364.47;;;1.61;53.70
18988;BME280;5494;51.796;10.952;2022-12-18T11:40:58;100359.41;;;1.69;53.89
18988;BME280;5494;51.796;10.952;2022-12-18T11:43:32;100351.69;;;1.63;54.09
18988;BME280;5494;51.796;10.952;2022-12-18T11:46:08;100347.38;;;1.57;54.60
18988;BME280;5494;51.796;10.952;2022-12-18T11:48:50;100337.09;;;1.54;54.76
18988;BME280;5494;51.796;10.952;2022-12-18T11:51:33;100337.03;;;1.46;55.11
18988;BME280;5494;51.796;10.952;2022-12-18T11:54:12;100345.69;;;1.57;54.82
18988;BME280;5494;51.796;10.952;2022-12-18T11:56:46;100359.44;;;1.72;54.53
18988;BME280;5494;51.796;10.952;2022-12-18T11:59:32;100356.03;;;1.73;53.82
18988;BME280;5494;51.796;10.952;2022-12-18T12:02:27;100346.72;;;1.85;54.00
18988;BME280;5494;51.796;10.952;2022-12-18T12:05:18;100362.91;;;1.80;53.50
18988;BME280;5494;51.796;10.952;2022-12-18T12:07:57;100362.09;;;1.87;54.00
18988;BME280;5494;51.796;10.952;2022-12-18T12:10:42;100367.13;;;1.70;53.53
18988;BME280;5494;51.796;10.952;2022-12-18T12:13:26;100365.44;;;1.75;54.35
18988;BME280;5494;51.796;10.952;2022-12-18T12:16:13;100367.25;;;1.90;54.73
18988;BME280;5494;51.796;10.952;2022-12-18T12:19:03;100352.53;;;1.58;54.43
18988;BME280;5494;51.796;10.952;2022-12-18T12:21:41;100350.59;;;1.33;54.88
18988;BME280;5494;51.796;10.952;2022-12-18T12:24:33;100347.19;;;1.31;56.19
18988;BME280;5494;51.796;10.952;2022-12-18T12:27:16;100348.00;;;1.29;56.17
18988;BME280;5494;51.796;10.952;2022-12-18T12:30:02;100337.00;;;1.40;56.21
18988;BME280;5494;51.796;10.952;2022-12-18T12:32:52;100340.44;;;1.45;56.10
18988;BME280;5494;51.796;10.952;2022-12-18T12:35:42;100323.94;;;1.10;56.25
18988;BME280;5494;51.796;10.952;2022-12-18T12:38:17;100318.00;;;1.14;56.69
18988;BME280;5494;51.796;10.952;2022-12-18T12:40:56;100314.44;;;1.00;57.44
18988;BME280;5494;51.796;10.952;2022-12-18T12:43:38;100303.38;;;1.04;56.02
18988;BME280;5494;51.796;10.952;2022-12-18T12:46:19;100305.84;;;0.92;55.71
18988;BME280;5494;51.796;10.952;2022-12-18T12:48:55;100302.41;;;0.91;56.34
18988;BME280;5494;51.796;10.952;2022-12-18T12:51:28;100304.09;;;0.88;55.99
18988;BME280;5494;51.796;10.952;2022-12-18T12:53:58;100298.78;;;0.69;56.56
18988;BME280;5494;51.796;10.952;2022-12-18T12:56:39;100296.91;;;0.53;57.07
18988;BME280;5494;51.796;10.952;2022-12-18T12:59:19;100304.47;;;0.41;57.52
18988;BME280;5494;51.796;10.952;2022-12-18T13:01:57;100306.03;;;0.30;58.05
18988;BME280;5494;51.796;10.952;2022-12-18T13:04:36;100298.16;;;0.13;58.80
18988;BME280;5494;51.796;10.952;2022-12-18T13:07:15;100300.72;;;0.15;60.56
18988;BME280;5494;51.796;10.952;2022-12-18T13:10:34;100294.78;;;0.16;58.38
18988;BME280;5494;51.796;10.952;2022-12-18T13:13:07;100290.47;;;0.12;57.02
18988;BME280;5494;51.796;10.952;2022-12-18T13:15:39;100291.25;;;0.06;56.43
18988;BME280;5494;51.796;10.952;2022-12-18T13:18:18;100287.88;;;0.09;55.78
18988;BME280;5494;51.796;10.952;2022-12-18T13:20:50;100276.00;;;0.12;55.41
18988;BME280;5494;51.796;10.952;2022-12-18T13:23:33;100282.66;;;-0.01;55.32
18988;BME280;5494;51.796;10.952;2022-12-18T13:26:31;100272.53;;;0.09;54.11